Terminal Aerodrome Forecast
Issued by NWS Cleveland, OH

Home | Current Version | Previous Version | Text Only | Print | Product List | Glossary On
Versions: 1 2 3 4 5 6 7 8 9 10 11 12 13 14 15 16 17 18 19 20 21 22
000
FTUS41 KCLE 280500
TAFERI
TAF
KERI 280523Z 2806/2906 32012G22KT P6SM SCT025 OVC035
      TEMPO 2806/2810 2SM -SHSN OVC025
     FM281000 29010G18KT P6SM SCT025 OVC045
      TEMPO 2810/2814 5SM -SHSN OVC025
     FM281400 24010KT P6SM BKN045 OVC080
     FM282000 21010KT P6SM VCSH OVC045
     FM290200 19010KT 6SM -SN BR OVC030=

USA.gov is the U.S. government's official web portal to all federal, state and local government web resources and services.